createdAt,value
2024-04-06T00:00:44.950Z,14.84
2024-04-06T00:01:40.105Z,14.85
2024-04-06T00:02:35.229Z,14.83
2024-04-06T00:03:30.770Z,14.83
2024-04-06T00:04:25.637Z,14.82
2024-04-06T00:05:20.784Z,14.81
2024-04-06T00:06:15.900Z,14.81
2024-04-06T00:07:11.013Z,14.80
2024-04-06T00:08:13.233Z,14.79
2024-04-06T00:09:02.469Z,14.77
2024-04-06T00:09:56.508Z,14.77
2024-04-06T00:10:51.628Z,14.77
2024-04-06T00:11:46.831Z,14.78
2024-04-06T00:12:42.071Z,14.78
2024-04-06T00:13:37.464Z,14.77
2024-04-06T00:14:32.322Z,14.77
2024-04-06T00:15:27.441Z,14.76
2024-04-06T00:16:22.685Z,14.76
2024-04-06T00:17:17.799Z,14.77
2024-04-06T00:18:12.912Z,14.79
2024-04-06T00:19:08.230Z,14.80
2024-04-06T00:20:03.212Z,14.79
2024-04-06T00:20:58.302Z,14.79
2024-04-06T00:21:53.462Z,14.77
2024-04-06T00:22:48.560Z,14.77
2024-04-06T00:23:43.841Z,14.74
2024-04-06T00:24:38.830Z,14.74
2024-04-06T00:25:33.944Z,14.73
2024-04-06T00:26:29.120Z,14.73
2024-04-06T00:27:24.204Z,14.72
2024-04-06T00:28:19.299Z,14.70
2024-04-06T00:29:14.623Z,14.66
2024-04-06T00:30:09.597Z,14.63
2024-04-06T00:31:04.698Z,14.61
2024-04-06T00:31:59.948Z,14.59
2024-04-06T00:32:55.062Z,14.57
2024-04-06T00:33:50.296Z,14.54
2024-04-06T00:34:45.337Z,14.53
2024-04-06T00:35:40.445Z,14.52
2024-04-06T00:36:35.615Z,14.51
2024-04-06T00:37:30.719Z,14.49
2024-04-06T00:38:25.946Z,14.47
2024-04-06T00:39:21.360Z,14.45
2024-04-06T00:40:16.207Z,14.44
2024-04-06T00:41:11.936Z,14.42
2024-04-06T00:42:06.562Z,14.40
2024-04-06T00:43:01.721Z,14.36
2024-04-06T00:43:57.463Z,14.31
2024-04-06T00:44:52.144Z,14.29
2024-04-06T00:45:47.262Z,14.28
2024-04-06T00:46:42.396Z,14.26
2024-04-06T00:47:37.563Z,14.25
2024-04-06T00:48:32.659Z,14.25
2024-04-06T00:49:27.978Z,14.23
2024-04-06T00:50:22.954Z,14.21
2024-04-06T00:51:18.089Z,14.20
2024-04-06T00:52:13.380Z,14.18
2024-04-06T00:53:08.559Z,14.15
2024-04-06T00:54:04.100Z,14.09
2024-04-06T00:54:58.974Z,14.06
2024-04-06T00:55:54.089Z,14.02
2024-04-06T00:56:49.249Z,13.98
2024-04-06T00:57:44.333Z,13.94
2024-04-06T00:58:39.449Z,13.90
2024-04-06T00:59:34.734Z,13.88
2024-04-06T01:00:29.724Z,13.85
2024-04-06T01:01:24.847Z,13.81
2024-04-06T01:02:19.981Z,13.78
2024-04-06T01:03:15.110Z,13.73
2024-04-06T01:04:10.384Z,13.66
2024-04-06T01:05:05.385Z,13.60
2024-04-06T01:06:00.672Z,13.53
2024-04-06T01:06:55.811Z,13.44
2024-04-06T01:07:50.959Z,13.37
2024-04-06T01:08:46.141Z,13.34
2024-04-06T01:09:41.260Z,13.30
2024-04-06T01:10:36.366Z,13.30
2024-04-06T01:11:31.618Z,13.31
2024-04-06T01:12:26.773Z,13.30
2024-04-06T01:13:22.007Z,13.28
2024-04-06T01:14:17.265Z,13.27
2024-04-06T01:15:12.273Z,13.27
2024-04-06T01:16:07.411Z,13.24
2024-04-06T01:17:02.567Z,13.19
2024-04-06T01:17:58.022Z,13.15
2024-04-06T01:18:53.146Z,13.14
2024-04-06T01:19:48.423Z,13.12
2024-04-06T01:20:43.548Z,13.09
2024-04-06T01:21:38.630Z,13.08
2024-04-06T01:22:33.777Z,13.05
2024-04-06T01:23:28.937Z,13.00
2024-04-06T01:24:24.342Z,12.96
2024-04-06T01:25:19.213Z,12.92
2024-04-06T01:26:14.339Z,12.88
2024-04-06T01:27:09.479Z,12.85
2024-04-06T01:28:04.584Z,12.80
2024-04-06T01:28:59.725Z,12.74
2024-04-06T01:29:54.879Z,12.69
2024-04-06T01:30:50.130Z,12.64
2024-04-06T01:31:45.275Z,12.61
2024-04-06T01:32:40.453Z,12.60
2024-04-06T01:33:35.555Z,12.60
2024-04-06T01:34:31.080Z,12.59
2024-04-06T01:35:26.011Z,12.58
2024-04-06T01:36:21.107Z,12.54
2024-04-06T01:37:16.368Z,12.50
2024-04-06T01:38:11.558Z,12.47
2024-04-06T01:39:07.039Z,12.45
2024-04-06T01:40:02.067Z,12.44
2024-04-06T01:40:57.181Z,12.43
2024-04-06T01:41:52.293Z,12.44
2024-04-06T01:42:47.433Z,12.43
2024-04-06T01:43:42.539Z,12.39
2024-04-06T01:44:37.970Z,12.36
2024-04-06T01:45:32.938Z,12.34
2024-04-06T01:46:28.373Z,12.30
2024-04-06T01:47:23.524Z,12.25
2024-04-06T01:48:18.650Z,12.18
2024-04-06T01:49:14.029Z,12.11
2024-04-06T01:50:09.178Z,12.07
2024-04-06T01:51:04.360Z,12.04
2024-04-06T01:51:59.472Z,12.02
2024-04-06T01:52:54.627Z,12.01
2024-04-06T01:53:49.708Z,12.02
2024-04-06T01:54:45.118Z,12.03
2024-04-06T01:55:39.999Z,12.03
2024-04-06T01:56:35.113Z,12.04
2024-04-06T01:57:30.238Z,12.06
2024-04-06T01:58:25.350Z,12.07
2024-04-06T01:59:20.663Z,12.08
2024-04-06T02:00:15.656Z,12.09
2024-04-06T02:01:10.771Z,12.09
2024-04-06T02:02:05.922Z,12.09
2024-04-06T02:03:01.069Z,12.06
2024-04-06T02:03:56.161Z,12.03
2024-04-06T02:04:51.420Z,11.97
2024-04-06T02:05:46.441Z,11.92
2024-04-06T02:06:41.563Z,11.89
2024-04-06T02:07:36.702Z,11.85
2024-04-06T02:08:31.843Z,11.85
2024-04-06T02:09:27.095Z,11.86
2024-04-06T02:10:22.110Z,11.85
2024-04-06T02:11:17.218Z,11.86
2024-04-06T02:12:12.452Z,11.85
2024-04-06T02:13:07.469Z,11.81
2024-04-06T02:14:02.619Z,11.82
2024-04-06T02:14:57.637Z,11.83
2024-04-06T02:15:55.395Z,11.84
2024-04-06T02:16:50.514Z,11.83
2024-04-06T02:17:45.627Z,11.85
2024-04-06T02:18:40.771Z,11.87
2024-04-06T02:19:36.112Z,11.83
2024-04-06T02:20:31.736Z,11.78
2024-04-06T02:21:26.864Z,11.75
2024-04-06T02:22:22.196Z,11.73
2024-04-06T02:23:17.832Z,11.72
2024-04-06T02:24:13.172Z,11.73
2024-04-06T02:25:08.749Z,11.73
2024-04-06T02:26:03.868Z,11.73
2024-04-06T02:26:59.151Z,11.70
2024-04-06T02:27:54.876Z,11.66
2024-04-06T02:28:50.027Z,11.64
2024-04-06T02:29:45.336Z,11.62
2024-04-06T02:30:41.575Z,11.60
2024-04-06T02:31:36.757Z,11.59
2024-04-06T02:32:32.687Z,11.55
2024-04-06T02:33:27.805Z,11.50
2024-04-06T02:34:23.053Z,11.46
2024-04-06T02:35:18.807Z,11.44
2024-04-06T02:36:14.059Z,11.44
2024-04-06T02:37:09.894Z,11.46
2024-04-06T02:38:05.076Z,11.42
2024-04-06T02:39:00.303Z,11.37
2024-04-06T02:39:56.141Z,11.35
2024-04-06T02:40:52.178Z,11.36
2024-04-06T02:41:46.544Z,11.36
2024-04-06T02:42:41.579Z,11.37
2024-04-06T02:43:36.611Z,11.42
2024-04-06T02:44:31.817Z,11.46
2024-04-06T02:45:26.659Z,11.47
2024-04-06T02:46:21.688Z,11.48
2024-04-06T02:47:16.746Z,11.47
2024-04-06T02:48:11.804Z,11.46
2024-04-06T02:49:12.292Z,11.44
2024-04-06T02:50:07.221Z,11.41
2024-04-06T02:51:02.434Z,11.41
2024-04-06T02:51:58.207Z,11.40
2024-04-06T02:52:53.411Z,11.42
2024-04-06T02:53:48.721Z,11.40
2024-04-06T02:54:44.822Z,11.40
2024-04-06T02:55:39.998Z,11.40
2024-04-06T02:56:35.880Z,11.39
2024-04-06T02:57:31.006Z,11.35
2024-04-06T02:58:26.293Z,11.27
2024-04-06T02:59:22.249Z,11.18
2024-04-06T03:00:17.292Z,11.13
2024-04-06T03:01:13.151Z,11.13
2024-04-06T03:02:08.283Z,11.15
2024-04-06T03:03:03.588Z,11.14
2024-04-06T03:03:59.330Z,11.09
2024-04-06T03:04:54.534Z,11.06
2024-04-06T03:05:49.742Z,11.02
2024-04-06T03:06:46.049Z,11.02
2024-04-06T03:07:41.292Z,11.00
2024-04-06T03:08:37.022Z,10.99
2024-04-06T03:09:32.316Z,10.98
2024-04-06T03:10:27.414Z,10.95
2024-04-06T03:11:23.139Z,10.91
2024-04-06T03:12:18.424Z,10.91
2024-04-06T03:13:14.270Z,10.92
2024-04-06T03:14:09.389Z,10.93
2024-04-06T03:15:04.715Z,10.92
2024-04-06T03:16:02.298Z,10.87
2024-04-06T03:16:55.924Z,10.86
2024-04-06T03:17:52.022Z,10.85
2024-04-06T03:18:47.352Z,10.85
2024-04-06T03:19:42.616Z,10.85
2024-04-06T03:20:37.578Z,10.88
2024-04-06T03:21:32.833Z,10.83
2024-04-06T03:22:29.483Z,10.75
2024-04-06T03:23:24.689Z,10.72
2024-04-06T03:24:19.906Z,10.71
2024-04-06T03:25:16.231Z,10.72
2024-04-06T03:26:11.331Z,10.73
2024-04-06T03:27:07.148Z,10.74
2024-04-06T03:28:02.302Z,10.74
2024-04-06T03:28:57.525Z,10.74
2024-04-06T03:29:53.282Z,10.70
2024-04-06T03:30:48.532Z,10.66
2024-04-06T03:31:44.274Z,10.66
2024-04-06T03:32:39.489Z,10.65
2024-04-06T03:33:34.712Z,10.64
2024-04-06T03:34:30.513Z,10.64
2024-04-06T03:35:25.754Z,10.67
2024-04-06T03:36:21.198Z,10.67
2024-04-06T03:37:17.194Z,10.63
2024-04-06T03:38:12.369Z,10.64
2024-04-06T03:39:07.562Z,10.65
2024-04-06T03:40:02.944Z,10.63
2024-04-06T03:40:57.993Z,10.62
2024-04-06T03:41:53.935Z,10.61
2024-04-06T03:42:49.142Z,10.62
2024-04-06T03:43:44.338Z,10.63
2024-04-06T03:44:40.275Z,10.63
2024-04-06T03:45:35.344Z,10.66
2024-04-06T03:46:30.515Z,10.68
2024-04-06T03:47:25.765Z,10.70
2024-04-06T03:48:20.968Z,10.69
2024-04-06T03:49:16.434Z,10.70
2024-04-06T03:50:12.632Z,10.68
2024-04-06T03:51:07.809Z,10.71
2024-04-06T03:52:03.177Z,10.71
2024-04-06T03:53:02.301Z,10.71
2024-04-06T03:53:57.504Z,10.71
2024-04-06T03:54:52.730Z,10.73
2024-04-06T03:55:47.943Z,10.73
2024-04-06T03:56:43.019Z,10.74
2024-04-06T03:57:38.100Z,10.75
2024-04-06T03:58:33.089Z,10.74
2024-04-06T03:59:33.930Z,10.75
2024-04-06T04:00:29.258Z,10.77
2024-04-06T04:01:24.445Z,10.79
2024-04-06T04:02:19.520Z,10.81
2024-04-06T04:03:14.859Z,10.81
2024-04-06T04:04:10.072Z,10.80
2024-04-06T04:05:05.286Z,10.76
2024-04-06T04:06:00.554Z,10.76
2024-04-06T04:06:55.747Z,10.74
2024-04-06T04:07:50.947Z,10.73
2024-04-06T04:08:46.141Z,10.71
2024-04-06T04:09:41.390Z,10.66
2024-04-06T04:10:36.727Z,10.64
2024-04-06T04:11:32.017Z,10.62
2024-04-06T04:12:27.079Z,10.59
2024-04-06T04:13:22.306Z,10.55
2024-04-06T04:14:17.489Z,10.53
2024-04-06T04:15:12.707Z,10.48
2024-04-06T04:16:08.023Z,10.43
2024-04-06T04:17:03.102Z,10.39
2024-04-06T04:17:58.442Z,10.36
2024-04-06T04:18:53.823Z,10.36
2024-04-06T04:19:48.977Z,10.34
2024-04-06T04:20:44.375Z,10.32
2024-04-06T04:21:39.400Z,10.31
2024-04-06T04:22:34.509Z,10.31
2024-04-06T04:23:29.752Z,10.30
2024-04-06T04:24:24.951Z,10.32
2024-04-06T04:25:20.220Z,10.33
2024-04-06T04:26:15.431Z,10.34
2024-04-06T04:27:10.631Z,10.36
2024-04-06T04:28:05.966Z,10.37
2024-04-06T04:29:01.024Z,10.37
2024-04-06T04:29:56.250Z,10.34
2024-04-06T04:30:52.008Z,10.32
2024-04-06T04:31:47.228Z,10.31
2024-04-06T04:32:42.506Z,10.27
2024-04-06T04:33:37.724Z,10.22
2024-04-06T04:34:33.117Z,10.18
2024-04-06T04:35:28.383Z,10.14
2024-04-06T04:36:23.654Z,10.08
2024-04-06T04:37:18.914Z,10.03
2024-04-06T04:38:14.165Z,10.01
2024-04-06T04:39:09.270Z,9.99
2024-04-06T04:40:04.448Z,9.96
2024-04-06T04:40:59.296Z,9.96
2024-04-06T04:41:54.353Z,9.95
2024-04-06T04:42:49.388Z,9.94
2024-04-06T04:43:44.456Z,9.93
2024-04-06T04:44:43.350Z,9.93
2024-04-06T04:45:34.558Z,9.89
2024-04-06T04:46:29.626Z,9.91
2024-04-06T04:47:24.718Z,9.92
2024-04-06T04:48:19.908Z,9.90
2024-04-06T04:49:15.132Z,9.90
2024-04-06T04:50:10.414Z,9.90
2024-04-06T04:51:05.672Z,9.87
2024-04-06T04:52:00.812Z,9.86
2024-04-06T04:52:55.771Z,9.86
2024-04-06T04:53:50.788Z,9.83
2024-04-06T04:54:45.897Z,9.83
2024-04-06T04:55:40.901Z,9.81
2024-04-06T04:56:35.907Z,9.81
2024-04-06T04:57:30.958Z,9.83
2024-04-06T04:58:25.975Z,9.84
2024-04-06T04:59:21.021Z,9.87
2024-04-06T05:00:16.236Z,9.90
2024-04-06T05:01:11.125Z,9.93
2024-04-06T05:02:06.316Z,9.94
2024-04-06T05:03:01.364Z,9.93
2024-04-06T05:03:56.406Z,9.95
2024-04-06T05:04:51.593Z,9.97
2024-04-06T05:05:46.553Z,9.99
2024-04-06T05:06:41.681Z,10.01
2024-04-06T05:07:36.752Z,10.02
2024-04-06T05:08:31.867Z,10.02
2024-04-06T05:09:26.844Z,10.02
2024-04-06T05:10:21.948Z,10.01
2024-04-06T05:11:20.431Z,10.00
2024-04-06T05:12:15.527Z,9.97
2024-04-06T05:13:10.718Z,9.95
2024-04-06T05:14:05.888Z,9.94
2024-04-06T05:15:00.966Z,9.93
2024-04-06T05:15:56.043Z,9.95
2024-04-06T05:16:50.966Z,9.98
2024-04-06T05:17:46.032Z,10.00
2024-04-06T05:18:41.155Z,9.97
2024-04-06T05:19:36.261Z,9.97
2024-04-06T05:20:31.338Z,9.98
2024-04-06T05:21:26.344Z,9.99
2024-04-06T05:22:21.347Z,10.04
2024-04-06T05:23:16.394Z,10.08
2024-04-06T05:24:11.542Z,10.14
2024-04-06T05:25:06.942Z,10.15
2024-04-06T05:26:02.411Z,10.18
2024-04-06T05:26:57.809Z,10.22
2024-04-06T05:27:53.373Z,10.25
2024-04-06T05:28:48.651Z,10.26
2024-04-06T05:29:44.081Z,10.29
2024-04-06T05:30:39.676Z,10.31
2024-04-06T05:31:34.822Z,10.31
2024-04-06T05:32:30.247Z,10.33
2024-04-06T05:33:25.669Z,10.36
2024-04-06T05:34:25.147Z,10.35
2024-04-06T05:35:20.517Z,10.35
2024-04-06T05:36:16.221Z,10.33
2024-04-06T05:37:11.377Z,10.35
2024-04-06T05:38:06.818Z,10.33
2024-04-06T05:39:02.124Z,10.33
2024-04-06T05:39:57.552Z,10.35
2024-04-06T05:40:52.975Z,10.35
2024-04-06T05:41:48.412Z,10.35
2024-04-06T05:42:43.907Z,10.35
2024-04-06T05:43:39.320Z,10.36
2024-04-06T05:44:34.829Z,10.35
2024-04-06T05:45:30.273Z,10.36
2024-04-06T05:46:25.868Z,10.36
2024-04-06T05:47:21.227Z,10.38
2024-04-06T05:48:16.283Z,10.38
2024-04-06T05:49:11.338Z,10.40
2024-04-06T05:50:06.413Z,10.41
2024-04-06T05:51:01.495Z,10.38
2024-04-06T05:51:56.649Z,10.39
2024-04-06T05:52:51.677Z,10.40
2024-04-06T05:53:48.608Z,10.42
2024-04-06T05:54:43.735Z,10.43
2024-04-06T05:55:38.824Z,10.45
2024-04-06T05:56:35.037Z,10.48
2024-04-06T05:57:28.986Z,10.51
2024-04-06T05:58:24.198Z,10.51
2024-04-06T05:59:19.314Z,10.50
2024-04-06T06:00:14.318Z,10.48
2024-04-06T06:01:09.592Z,10.47
2024-04-06T06:02:04.508Z,10.47
2024-04-06T06:03:00.832Z,10.49
2024-04-06T06:03:56.266Z,10.52
2024-04-06T06:04:52.252Z,10.55
2024-04-06T06:05:47.737Z,10.57
2024-04-06T06:06:43.434Z,10.57
2024-04-06T06:07:38.970Z,10.58
2024-04-06T06:08:34.354Z,10.59
2024-04-06T06:09:30.153Z,10.59
2024-04-06T06:10:25.494Z,10.61
2024-04-06T06:11:21.003Z,10.64
2024-04-06T06:12:16.886Z,10.65
2024-04-06T06:13:12.270Z,10.68
2024-04-06T06:14:07.727Z,10.71
2024-04-06T06:15:03.921Z,10.76
2024-04-06T06:15:59.408Z,10.82
2024-04-06T06:16:55.312Z,10.89
2024-04-06T06:17:50.670Z,10.96
2024-04-06T06:18:46.145Z,10.99
2024-04-06T06:19:41.951Z,11.04
2024-04-06T06:20:37.494Z,11.10
2024-04-06T06:21:33.520Z,11.18
2024-04-06T06:22:28.803Z,11.23
2024-04-06T06:23:24.153Z,11.33
2024-04-06T06:24:19.943Z,11.40
2024-04-06T06:25:15.422Z,11.50
2024-04-06T06:26:11.058Z,11.58
2024-04-06T06:27:07.112Z,11.65
2024-04-06T06:28:02.565Z,11.73
2024-04-06T06:28:58.527Z,11.82
2024-04-06T06:29:53.838Z,11.93
2024-04-06T06:30:49.306Z,12.04
2024-04-06T06:31:45.076Z,12.15
2024-04-06T06:32:40.586Z,12.27
2024-04-06T06:33:36.444Z,12.39
2024-04-06T06:34:31.797Z,12.49
2024-04-06T06:35:27.288Z,12.60
2024-04-06T06:38:13.911Z,12.92
2024-04-06T06:41:00.587Z,13.11
2024-04-06T06:41:56.058Z,13.22
2024-04-06T06:42:52.398Z,13.33
2024-04-06T06:43:47.861Z,13.39
2024-04-06T06:44:43.636Z,13.49
2024-04-06T06:45:39.149Z,13.58
2024-04-06T06:46:34.524Z,13.59
2024-04-06T06:47:30.543Z,13.53
2024-04-06T06:48:25.990Z,13.53
2024-04-06T06:49:21.766Z,13.60
2024-04-06T06:50:17.234Z,13.65
2024-04-06T06:51:12.725Z,13.75
2024-04-06T06:52:08.377Z,13.90
2024-04-06T06:53:03.689Z,13.96
2024-04-06T06:53:59.470Z,13.97
2024-04-06T06:54:54.990Z,14.01
2024-04-06T06:55:50.919Z,14.08
2024-04-06T06:56:46.172Z,14.19
2024-04-06T06:57:41.508Z,14.30
2024-04-06T06:58:37.275Z,14.39
2024-04-06T07:00:28.275Z,14.41
2024-04-06T07:01:23.364Z,14.44
2024-04-06T07:02:18.481Z,14.60
2024-04-06T07:03:13.702Z,14.80
2024-04-06T07:04:08.673Z,15.01
2024-04-06T07:05:03.785Z,15.22
2024-04-06T07:05:58.950Z,15.39
2024-04-06T07:07:49.187Z,15.78
2024-04-06T07:09:02.274Z,15.94
2024-04-06T07:09:40.337Z,16.03
2024-04-06T07:10:34.333Z,16.10
2024-04-06T07:11:30.214Z,16.22
2024-04-06T07:12:25.837Z,16.34
2024-04-06T07:13:21.226Z,16.48
2024-04-06T07:14:17.092Z,16.64
2024-04-06T07:15:12.556Z,16.60
2024-04-06T07:16:08.083Z,16.41
2024-04-06T07:17:03.565Z,16.20
2024-04-06T07:17:58.642Z,16.22
2024-04-06T07:18:53.698Z,16.29
2024-04-06T07:19:48.689Z,16.39
2024-04-06T07:20:43.714Z,16.52
2024-04-06T07:21:38.840Z,16.70
2024-04-06T07:22:33.825Z,16.86
2024-04-06T07:23:28.829Z,16.89
2024-04-06T07:24:23.961Z,16.90
2024-04-06T07:25:18.923Z,16.82
2024-04-06T07:26:13.936Z,16.85
2024-04-06T07:27:09.095Z,17.04
2024-04-06T07:28:04.148Z,17.21
2024-04-06T07:28:59.228Z,17.21
2024-04-06T07:29:54.358Z,17.20
2024-04-06T07:30:49.356Z,17.17
2024-04-06T07:31:44.373Z,17.18
2024-04-06T07:32:39.364Z,17.17
2024-04-06T07:33:34.374Z,17.21
2024-04-06T07:34:29.354Z,17.28
2024-04-06T07:35:24.883Z,17.42
2024-04-06T07:36:20.449Z,17.58
2024-04-06T07:37:15.692Z,17.73
2024-04-06T07:38:13.839Z,17.93
2024-04-06T07:40:02.743Z,18.07
2024-04-06T07:40:58.208Z,18.18
2024-04-06T07:41:53.808Z,18.16
2024-04-06T07:42:49.371Z,18.14
2024-04-06T07:43:44.816Z,18.01
2024-04-06T07:44:40.379Z,18.06
2024-04-06T07:45:35.804Z,18.17
2024-04-06T07:46:31.386Z,18.10
2024-04-06T07:47:26.526Z,17.85
2024-04-06T07:48:21.817Z,17.79
2024-04-06T07:49:17.194Z,17.99
2024-04-06T07:50:12.752Z,18.28
2024-04-06T07:51:08.202Z,18.52
2024-04-06T07:52:03.972Z,18.81
2024-04-06T07:52:59.326Z,19.05
2024-04-06T07:53:54.619Z,19.14
2024-04-06T07:54:50.081Z,18.74
2024-04-06T07:55:45.754Z,18.57
2024-04-06T07:56:40.773Z,18.30
2024-04-06T07:57:35.937Z,18.09
2024-04-06T07:58:30.859Z,18.13
2024-04-06T07:59:25.881Z,18.19
2024-04-06T08:00:20.898Z,18.25
2024-04-06T08:01:15.971Z,18.23
2024-04-06T08:02:11.140Z,18.22
2024-04-06T08:03:06.023Z,18.23
2024-04-06T08:04:01.111Z,18.28
2024-04-06T08:04:56.092Z,18.47
2024-04-06T08:05:53.090Z,18.56
2024-04-06T08:06:48.179Z,18.46
2024-04-06T08:07:43.226Z,18.56
2024-04-06T08:08:38.309Z,18.60
2024-04-06T08:09:34.274Z,18.71
2024-04-06T08:10:29.847Z,18.76
2024-04-06T08:11:25.308Z,18.81
2024-04-06T08:12:21.048Z,18.86
2024-04-06T08:13:16.413Z,18.90
2024-04-06T08:14:20.754Z,18.91
2024-04-06T08:15:07.818Z,18.87
2024-04-06T08:16:01.932Z,18.80
2024-04-06T08:16:56.903Z,18.73
2024-04-06T08:17:52.068Z,18.66
2024-04-06T08:18:46.987Z,18.62
2024-04-06T08:19:42.002Z,18.57
2024-04-06T08:20:37.015Z,18.58
2024-04-06T08:21:32.026Z,18.64
2024-04-06T08:22:27.424Z,18.75
2024-04-06T08:23:22.336Z,18.96
2024-04-06T08:24:17.371Z,18.92
2024-04-06T08:25:12.405Z,19.00
2024-04-06T08:26:07.411Z,19.14
2024-04-06T08:27:02.436Z,19.29
2024-04-06T08:27:57.490Z,19.32
2024-04-06T08:28:52.509Z,19.18
2024-04-06T08:29:47.528Z,19.14
2024-04-06T08:30:42.986Z,19.14
2024-04-06T08:31:38.082Z,19.19
2024-04-06T08:32:33.227Z,19.24
2024-04-06T08:33:28.204Z,19.33
2024-04-06T08:34:23.209Z,19.54
2024-04-06T08:35:18.241Z,19.68
2024-04-06T08:36:13.272Z,19.80
2024-04-06T08:37:08.330Z,19.83
2024-04-06T08:38:05.695Z,19.83
2024-04-06T08:39:00.720Z,19.88
2024-04-06T08:39:55.850Z,19.95
2024-04-06T08:40:50.884Z,20.09
2024-04-06T08:41:45.902Z,20.26
2024-04-06T08:42:40.976Z,20.34
2024-04-06T08:43:35.978Z,20.19
2024-04-06T08:44:31.018Z,19.90
2024-04-06T08:45:27.163Z,19.88
2024-04-06T08:46:22.690Z,19.98
2024-04-06T08:47:18.296Z,20.11
2024-04-06T08:48:13.880Z,20.24
2024-04-06T08:49:09.294Z,20.30
2024-04-06T08:50:04.689Z,20.46
2024-04-06T08:51:00.186Z,20.55
2024-04-06T08:51:55.574Z,20.33
2024-04-06T08:52:51.139Z,20.20
2024-04-06T08:53:46.453Z,20.11
2024-04-06T08:54:41.465Z,19.98
2024-04-06T08:55:36.507Z,19.88
2024-04-06T08:56:31.557Z,19.83
2024-04-06T08:57:26.592Z,19.96
2024-04-06T08:58:21.778Z,20.29
2024-04-06T08:59:16.649Z,20.73
2024-04-06T09:00:11.778Z,20.80
2024-04-06T09:01:09.891Z,20.67
2024-04-06T09:02:04.995Z,20.73
2024-04-06T09:03:00.044Z,20.74
2024-04-06T09:03:55.043Z,20.66
2024-04-06T09:04:50.173Z,20.56
2024-04-06T09:05:45.158Z,20.61
2024-04-06T09:06:40.347Z,20.77
2024-04-06T09:07:35.464Z,20.89
2024-04-06T09:08:31.288Z,21.05
2024-04-06T09:09:26.850Z,21.13
2024-04-06T09:10:22.410Z,21.06
2024-04-06T09:11:17.986Z,21.13
2024-04-06T09:12:13.542Z,21.02
2024-04-06T09:13:09.181Z,20.75
2024-04-06T09:14:04.669Z,20.80
2024-04-06T09:15:00.187Z,20.92
2024-04-06T09:15:55.570Z,20.97
2024-04-06T09:16:50.881Z,20.97
2024-04-06T09:17:45.889Z,21.22
2024-04-06T09:18:40.913Z,21.50
2024-04-06T09:19:36.017Z,21.62
2024-04-06T09:20:31.071Z,21.53
2024-04-06T09:21:26.147Z,21.46
2024-04-06T09:22:21.153Z,21.23
2024-04-06T09:23:16.335Z,20.99
2024-04-06T09:24:13.515Z,21.06
2024-04-06T09:25:08.720Z,21.36
2024-04-06T09:26:03.718Z,21.59
2024-04-06T09:26:58.707Z,21.91
2024-04-06T09:27:53.800Z,21.80
2024-04-06T09:28:48.962Z,21.85
2024-04-06T09:29:43.993Z,21.89
2024-04-06T09:30:38.971Z,21.81
2024-04-06T09:31:35.219Z,21.78
2024-04-06T09:32:30.765Z,21.74
2024-04-06T09:33:26.129Z,21.86
2024-04-06T09:34:21.851Z,22.11
2024-04-06T09:35:17.115Z,22.34
2024-04-06T09:36:12.684Z,22.54
2024-04-06T09:37:09.206Z,22.46
2024-04-06T09:38:04.724Z,22.42
2024-04-06T09:39:00.437Z,22.43
2024-04-06T09:39:55.703Z,22.20
2024-04-06T09:40:51.203Z,21.93
2024-04-06T09:41:46.717Z,22.00
2024-04-06T09:42:41.991Z,22.19
2024-04-06T09:43:37.677Z,22.17
2024-04-06T09:44:33.387Z,22.31
2024-04-06T09:45:28.697Z,22.58
2024-04-06T09:46:24.379Z,22.68
2024-04-06T09:47:20.017Z,22.64
2024-04-06T09:48:15.569Z,22.60
2024-04-06T09:49:11.110Z,22.70
2024-04-06T09:50:06.168Z,22.73
2024-04-06T09:51:01.188Z,22.63
2024-04-06T09:51:56.206Z,22.66
2024-04-06T09:52:51.231Z,22.55
2024-04-06T09:53:46.409Z,22.59
2024-04-06T09:54:41.505Z,22.73
2024-04-06T09:55:36.556Z,22.95
2024-04-06T09:56:31.574Z,23.13
2024-04-06T09:57:26.602Z,23.38
2024-04-06T09:58:21.644Z,23.65
2024-04-06T09:59:16.759Z,23.79
2024-04-06T10:00:11.815Z,23.60
2024-04-06T10:01:09.404Z,23.71
2024-04-06T10:02:04.384Z,23.71
2024-04-06T10:02:59.432Z,23.53
2024-04-06T10:03:54.546Z,23.55
2024-04-06T10:04:49.671Z,23.78
2024-04-06T10:05:44.899Z,23.93
2024-04-06T10:06:39.794Z,24.00
2024-04-06T10:07:34.835Z,24.12
2024-04-06T10:08:29.948Z,24.29
2024-04-06T10:09:25.214Z,24.35
2024-04-06T10:10:21.743Z,24.46
2024-04-06T10:11:17.358Z,24.44
2024-04-06T10:12:12.888Z,24.19
2024-04-06T10:13:08.469Z,24.19
2024-04-06T10:14:03.923Z,24.21
2024-04-06T10:14:59.894Z,24.17
2024-04-06T10:15:55.331Z,24.30
2024-04-06T10:16:51.174Z,24.29
2024-04-06T10:17:46.492Z,24.19
2024-04-06T10:18:41.985Z,24.05
2024-04-06T10:19:37.738Z,24.03
2024-04-06T10:20:33.036Z,24.22
2024-04-06T10:21:28.614Z,24.19
2024-04-06T10:22:24.988Z,24.10
2024-04-06T10:23:20.413Z,24.00
2024-04-06T10:24:16.260Z,24.06
2024-04-06T10:25:11.687Z,24.22
2024-04-06T10:26:07.241Z,24.26
2024-04-06T10:27:02.995Z,24.37
2024-04-06T10:27:58.510Z,24.65
2024-04-06T10:28:54.352Z,24.90
2024-04-06T10:29:49.791Z,25.16
2024-04-06T10:30:45.380Z,25.12
2024-04-06T10:31:47.335Z,25.21
2024-04-06T10:32:37.561Z,25.44
2024-04-06T10:33:32.049Z,25.58
2024-04-06T10:34:31.540Z,25.68
2024-04-06T10:35:23.151Z,25.34
2024-04-06T10:36:17.500Z,25.01
2024-04-06T10:37:12.407Z,24.84
2024-04-06T10:38:07.391Z,24.68
2024-04-06T10:39:02.369Z,24.68
2024-04-06T10:39:57.948Z,24.83
2024-04-06T10:40:53.548Z,24.83
2024-04-06T10:41:48.987Z,24.84
2024-04-06T10:42:44.711Z,25.05
2024-04-06T10:43:40.336Z,25.28
2024-04-06T10:44:36.146Z,25.30
2024-04-06T10:45:31.731Z,25.22
2024-04-06T10:46:27.140Z,25.11
2024-04-06T10:47:22.981Z,24.95
2024-04-06T10:48:18.269Z,25.01
2024-04-06T10:49:13.964Z,25.23
2024-04-06T10:50:10.048Z,25.55
2024-04-06T10:51:05.870Z,25.76
2024-04-06T10:52:01.534Z,25.85
2024-04-06T10:52:56.941Z,25.67
2024-04-06T10:53:52.548Z,25.43
2024-04-06T10:54:48.327Z,25.54
2024-04-06T10:55:43.624Z,25.58
2024-04-06T10:56:39.520Z,25.36
2024-04-06T10:57:34.771Z,25.33
2024-04-06T10:58:30.274Z,25.34
2024-04-06T10:59:25.773Z,25.34
2024-04-06T11:00:21.323Z,25.15
2024-04-06T11:01:17.286Z,25.08
2024-04-06T11:02:12.455Z,25.06
2024-04-06T11:03:08.291Z,25.08
2024-04-06T11:04:03.662Z,25.12
2024-04-06T11:04:59.142Z,25.25
2024-04-06T11:05:54.938Z,25.30
2024-04-06T11:06:50.556Z,25.44
2024-04-06T11:07:46.030Z,25.52
2024-04-06T11:08:42.191Z,25.57
2024-04-06T11:09:37.841Z,25.70
2024-04-06T11:10:33.869Z,25.73
2024-04-06T11:11:29.386Z,25.48
2024-04-06T11:12:24.728Z,25.11
2024-04-06T11:13:20.558Z,24.89
2024-04-06T11:14:16.125Z,24.98
2024-04-06T11:15:11.616Z,24.92
2024-04-06T11:16:07.114Z,25.00
2024-04-06T11:17:02.611Z,25.00
2024-04-06T11:17:59.195Z,25.07
2024-04-06T11:18:55.952Z,25.30
2024-04-06T11:19:51.309Z,25.44
2024-04-06T11:20:46.810Z,25.69
2024-04-06T11:21:42.867Z,25.92
2024-04-06T11:24:02.458Z,25.64
2024-04-06T11:25:00.436Z,26.01
2024-04-06T11:25:53.175Z,26.09
2024-04-06T11:26:48.607Z,26.07
2024-04-06T11:27:43.918Z,26.19
2024-04-06T11:28:39.428Z,26.30
2024-04-06T11:29:34.793Z,26.28
2024-04-06T11:30:30.267Z,26.25
2024-04-06T11:31:25.805Z,26.41
2024-04-06T11:32:21.313Z,26.64
2024-04-06T11:33:16.740Z,26.91
2024-04-06T11:34:12.224Z,27.23
2024-04-06T11:35:07.685Z,27.45
2024-04-06T11:36:02.985Z,27.71
2024-04-06T11:36:58.377Z,27.86
2024-04-06T11:37:53.847Z,27.97
2024-04-06T11:38:49.339Z,27.92
2024-04-06T11:39:44.848Z,27.75
2024-04-06T11:40:40.443Z,27.65
2024-04-06T11:41:35.900Z,27.75
2024-04-06T11:42:32.147Z,27.93
2024-04-06T11:43:26.715Z,27.92
2024-04-06T11:44:22.077Z,27.82
2024-04-06T11:45:17.456Z,27.71
2024-04-06T11:46:12.969Z,27.56
2024-04-06T11:47:08.476Z,27.66
2024-04-06T11:48:03.649Z,27.73
2024-04-06T11:48:59.120Z,27.72
2024-04-06T11:49:54.491Z,27.70
2024-04-06T11:50:49.971Z,27.83
2024-04-06T11:51:45.463Z,27.71
2024-04-06T11:52:41.262Z,27.40
2024-04-06T11:53:36.200Z,27.11
2024-04-06T11:54:31.674Z,27.17
2024-04-06T11:55:27.055Z,27.37
2024-04-06T11:56:22.555Z,27.32
2024-04-06T11:57:18.091Z,27.28
2024-04-06T11:58:13.376Z,27.10
2024-04-06T11:59:08.787Z,26.91
2024-04-06T12:00:04.385Z,26.76
2024-04-06T12:00:59.587Z,26.64
2024-04-06T12:01:55.181Z,26.70